Japan Airlines Virtual Airport Information Service

Osaka Kansai International Airport

ICAO: RJBB Country: Japan
Latitude: 34.4273 Longitude: 135.244
Latest Arrival : JAL8915 (RJTT-RJBB) Latest Departure : CAL5148 (RJBB-PANC)


WX CaptureLIVE
Data provided by noaa.gov | Fetched at 07:05:12

METAR : RJBB 060630Z 02013KT 9999 FEW020 BKN035 BKN/// 12/07 Q1021 NOSIG

TAF : RJBB 060506Z 0606/0712 02018KT 9999 FEW020 SCT030 BECMG 0703/0706 36008KT


Runway Data for RJBB
Data provided by openaviationdata.com

Runway ID Mag Var Hdg Length Elevation Surface ILS Freq ILS Id ILS Slope
6 -7 57° 11483 ft 15 ft Asphalt 108.1 IKD 3
24 -7 237° 11483 ft 15 ft Asphalt 110.7 IKN 3

Osaka Kansai International Airport, Japan
Use only for reference purposes



Not for navigational purposes.